N2235 KPWM-B19
Flight info
| Callsign | N2235 |
|---|---|
| Flight time | N/A |
| Altitude | 2500 |
| Route | VFR FLIGHT |
| Aircraft | C172/L-VGD/A |
Departure
| Time | 2026-05-05 21:57 |
|---|---|
| Airport | Portland International Jetport (KPWM) |
Arrival
| Time | N/A |
|---|---|
| Airport | B19 |
| Time | Latitude | Longitude | Altitude | Speed | Heading |
|---|---|---|---|---|---|
| 2026-05-05 21:47 | 43.65122 | -70.30781 | 47 ft | 0 kts | 359° |
| 2026-05-05 21:53 | 43.65128 | -70.30781 | 47 ft | 4 kts | 355° |
| 2026-05-05 21:53 | 43.65167 | -70.30755 | 47 ft | 7 kts | 43° |
| 2026-05-05 21:53 | 43.65228 | -70.30770 | 45 ft | 12 kts | 339° |
| 2026-05-05 21:53 | 43.65298 | -70.30804 | 46 ft | 10 kts | 340° |
| 2026-05-05 21:54 | 43.65350 | -70.30828 | 47 ft | 0 kts | 340° |
| 2026-05-05 21:54 | 43.65360 | -70.30833 | 47 ft | 7 kts | 342° |
| 2026-05-05 21:54 | 43.65420 | -70.30768 | 47 ft | 20 kts | 96° |
| 2026-05-05 21:55 | 43.65350 | -70.30630 | 43 ft | 13 kts | 109° |
| 2026-05-05 21:55 | 43.65409 | -70.30609 | 41 ft | 12 kts | 271° |
| 2026-05-05 21:55 | 43.65366 | -70.30667 | 44 ft | 11 kts | 195° |
| 2026-05-05 21:55 | 43.65272 | -70.30657 | 45 ft | 13 kts | 162° |
| 2026-05-05 21:56 | 43.65127 | -70.30599 | 47 ft | 43 kts | 164° |
| 2026-05-05 21:56 | 43.64825 | -70.30310 | 126 ft | 62 kts | 158° |
| 2026-05-05 21:56 | 43.64451 | -70.29923 | 234 ft | 73 kts | 157° |
| 2026-05-05 21:56 | 43.63991 | -70.29553 | 430 ft | 75 kts | 162° |
| 2026-05-05 21:57 | 43.63492 | -70.29340 | 606 ft | 75 kts | 174° |
| 2026-05-05 21:57 | 43.62966 | -70.29505 | 620 ft | 87 kts | 208° |
| 2026-05-05 21:57 | 43.62497 | -70.29992 | 741 ft | 84 kts | 220° |
| 2026-05-05 21:57 | 43.62245 | -70.30791 | 846 ft | 95 kts | 236° |
| 2026-05-05 21:58 | 43.61987 | -70.31574 | 1087 ft | 87 kts | 240° |
| 2026-05-05 21:58 | 43.61748 | -70.32389 | 1143 ft | 96 kts | 243° |
| 2026-05-05 21:58 | 43.61529 | -70.33284 | 1281 ft | 98 kts | 241° |
| 2026-05-05 21:58 | 43.61161 | -70.34065 | 1359 ft | 96 kts | 231° |
| 2026-05-05 21:59 | 43.60745 | -70.34756 | 1353 ft | 95 kts | 222° |
| 2026-05-05 21:59 | 43.60225 | -70.35351 | 1307 ft | 100 kts | 221° |
| 2026-05-05 21:59 | 43.59700 | -70.35965 | 1306 ft | 100 kts | 222° |
| 2026-05-05 21:59 | 43.59158 | -70.36592 | 1291 ft | 96 kts | 220° |
| 2026-05-05 22:00 | 43.58658 | -70.37120 | 1358 ft | 92 kts | 216° |
| 2026-05-05 22:00 | 43.58082 | -70.37511 | 1343 ft | 96 kts | 205° |
| 2026-05-05 22:00 | 43.57453 | -70.37905 | 1292 ft | 98 kts | 208° |
| 2026-05-05 22:00 | 43.56869 | -70.38368 | 1259 ft | 96 kts | 218° |
| 2026-05-05 22:01 | 43.56357 | -70.38873 | 1402 ft | 82 kts | 219° |
| 2026-05-05 22:01 | 43.55844 | -70.39345 | 1355 ft | 92 kts | 216° |
| 2026-05-05 22:01 | 43.55318 | -70.39834 | 1341 ft | 91 kts | 218° |
| 2026-05-05 22:01 | 43.54786 | -70.40342 | 1278 ft | 95 kts | 210° |
| 2026-05-05 22:02 | 43.54206 | -70.40773 | 1261 ft | 96 kts | 211° |
| 2026-05-05 22:02 | 43.53615 | -70.41235 | 1212 ft | 97 kts | 212° |
| 2026-05-05 22:02 | 43.53022 | -70.41757 | 1112 ft | 103 kts | 215° |
| 2026-05-05 22:02 | 43.52450 | -70.42341 | 1107 ft | 100 kts | 213° |
| 2026-05-05 22:03 | 43.51894 | -70.42906 | 1081 ft | 100 kts | 216° |
| 2026-05-05 22:03 | 43.51290 | -70.43483 | 960 ft | 113 kts | 215° |
| 2026-05-05 22:03 | 43.50656 | -70.44142 | 870 ft | 111 kts | 214° |
| 2026-05-05 22:03 | 43.50056 | -70.44740 | 965 ft | 102 kts | 214° |
| 2026-05-05 22:04 | 43.49485 | -70.45379 | 956 ft | 105 kts | 213° |
| 2026-05-05 22:04 | 43.48921 | -70.45964 | 974 ft | 102 kts | 217° |
| 2026-05-05 22:04 | 43.48363 | -70.46577 | 997 ft | 102 kts | 208° |
| 2026-05-05 22:04 | 43.47679 | -70.46932 | 897 ft | 106 kts | 192° |
| 2026-05-05 22:05 | 43.46982 | -70.47105 | 854 ft | 108 kts | 191° |
| 2026-05-05 22:05 | 43.46407 | -70.46652 | 915 ft | 119 kts | 121° |
| 2026-05-05 22:05 | 43.46034 | -70.45728 | 1036 ft | 105 kts | 133° |
| 2026-05-05 22:05 | 43.45625 | -70.44925 | 1127 ft | 100 kts | 142° |
| 2026-05-05 22:06 | 43.45119 | -70.44206 | 1010 ft | 107 kts | 153° |
| 2026-05-05 22:06 | 43.44515 | -70.43910 | 1104 ft | 85 kts | 183° |
| 2026-05-05 22:06 | 43.43958 | -70.44026 | 1066 ft | 84 kts | 203° |
| 2026-05-05 22:06 | 43.43635 | -70.44693 | 1032 ft | 98 kts | 260° |
| 2026-05-05 22:07 | 43.44108 | -70.45506 | 1016 ft | 128 kts | 333° |
| 2026-05-05 22:07 | 43.45027 | -70.45595 | 971 ft | 132 kts | 0° |
| 2026-05-05 22:07 | 43.45891 | -70.45236 | 952 ft | 129 kts | 25° |
| 2026-05-05 22:07 | 43.46605 | -70.44536 | 839 ft | 128 kts | 65° |
| 2026-05-05 22:08 | 43.47070 | -70.43555 | 831 ft | 118 kts | 63° |
| 2026-05-05 22:08 | 43.47644 | -70.42834 | 844 ft | 112 kts | 14° |
| 2026-05-05 22:08 | 43.48376 | -70.43060 | 808 ft | 109 kts | 310° |
| 2026-05-05 22:08 | 43.48771 | -70.43925 | 791 ft | 103 kts | 283° |
| 2026-05-05 22:09 | 43.48723 | -70.44685 | 832 ft | 76 kts | 212° |
| 2026-05-05 22:09 | 43.48252 | -70.45126 | 686 ft | 86 kts | 217° |
| 2026-05-05 22:09 | 43.47770 | -70.45659 | 557 ft | 92 kts | 218° |
| 2026-05-05 22:09 | 43.47303 | -70.46220 | 426 ft | 84 kts | 218° |
| 2026-05-05 22:10 | 43.46873 | -70.46700 | 257 ft | 77 kts | 220° |
| 2026-05-05 22:10 | 43.46523 | -70.47146 | 155 ft | 58 kts | 211° |
| 2026-05-05 22:10 | 43.46308 | -70.47370 | 152 ft | 17 kts | 227° |
| 2026-05-05 22:10 | 43.46288 | -70.47369 | 153 ft | 4 kts | 25° |
| 2026-05-05 22:11 | 43.46356 | -70.47304 | 152 ft | 12 kts | 30° |
| 2026-05-05 22:11 | 43.46399 | -70.47331 | 153 ft | 7 kts | 227° |
| 2026-05-05 22:11 | 43.46391 | -70.47364 | 152 ft | 0 kts | 295° |